sensor_id;sensor_type;location;lat;lon;timestamp;P1;durP1;ratioP1;P2;durP2;ratioP2
53034;SDS011;38923;53.236;6.506;2022-10-01T00:00:24;10.00;;;8.18;;
53034;SDS011;38923;53.236;6.506;2022-10-01T00:02:51;10.48;;;7.28;;
53034;SDS011;38923;53.236;6.506;2022-10-01T00:05:21;11.82;;;7.70;;
53034;SDS011;38923;53.236;6.506;2022-10-01T00:07:49;10.07;;;7.45;;
53034;SDS011;38923;53.236;6.506;2022-10-01T00:10:15;14.60;;;7.53;;
53034;SDS011;38923;53.236;6.506;2022-10-01T00:12:45;10.73;;;8.02;;
53034;SDS011;38923;53.236;6.506;2022-10-01T00:15:14;11.43;;;7.82;;
53034;SDS011;38923;53.236;6.506;2022-10-01T00:17:41;14.68;;;9.10;;
53034;SDS011;38923;53.236;6.506;2022-10-01T00:20:07;11.10;;;8.40;;
53034;SDS011;38923;53.236;6.506;2022-10-01T00:22:35;9.60;;;8.00;;
53034;SDS011;38923;53.236;6.506;2022-10-01T00:25:01;11.63;;;8.75;;
53034;SDS011;38923;53.236;6.506;2022-10-01T00:27:29;11.93;;;8.05;;
53034;SDS011;38923;53.236;6.506;2022-10-01T00:29:55;10.07;;;8.32;;
53034;SDS011;38923;53.236;6.506;2022-10-01T00:32:22;13.43;;;9.23;;
53034;SDS011;38923;53.236;6.506;2022-10-01T00:34:48;13.38;;;9.02;;
53034;SDS011;38923;53.236;6.506;2022-10-01T00:37:14;11.98;;;9.25;;
53034;SDS011;38923;53.236;6.506;2022-10-01T00:39:44;11.40;;;9.30;;
53034;SDS011;38923;53.236;6.506;2022-10-01T00:42:18;14.20;;;10.00;;
53034;SDS011;38923;53.236;6.506;2022-10-01T00:44:47;12.43;;;9.57;;
53034;SDS011;38923;53.236;6.506;2022-10-01T00:47:25;11.98;;;9.85;;
53034;SDS011;38923;53.236;6.506;2022-10-01T00:50:12;11.43;;;8.77;;
53034;SDS011;38923;53.236;6.506;2022-10-01T00:52:40;15.52;;;9.57;;
53034;SDS011;38923;53.236;6.506;2022-10-01T00:55:11;13.27;;;9.13;;
53034;SDS011;38923;53.236;6.506;2022-10-01T00:57:49;12.15;;;9.98;;
53034;SDS011;38923;53.236;6.506;2022-10-01T01:00:15;12.48;;;10.18;;
53034;SDS011;38923;53.236;6.506;2022-10-01T01:02:42;13.68;;;10.15;;
53034;SDS011;38923;53.236;6.506;2022-10-01T01:05:08;13.80;;;9.70;;
53034;SDS011;38923;53.236;6.506;2022-10-01T01:07:38;11.77;;;10.20;;
53034;SDS011;38923;53.236;6.506;2022-10-01T01:10:09;12.93;;;10.30;;
53034;SDS011;38923;53.236;6.506;2022-10-01T01:12:40;13.75;;;10.02;;
53034;SDS011;38923;53.236;6.506;2022-10-01T01:15:24;11.00;;;9.65;;
53034;SDS011;38923;53.236;6.506;2022-10-01T01:18:18;15.00;;;10.13;;
53034;SDS011;38923;53.236;6.506;2022-10-01T01:21:31;12.70;;;9.68;;
53034;SDS011;38923;53.236;6.506;2022-10-01T01:26:25;13.65;;;9.80;;
53034;SDS011;38923;53.236;6.506;2022-10-01T01:29:11;12.77;;;9.60;;
53034;SDS011;38923;53.236;6.506;2022-10-01T01:31:59;12.63;;;9.18;;
53034;SDS011;38923;53.236;6.506;2022-10-01T01:34:31;13.20;;;9.75;;
53034;SDS011;38923;53.236;6.506;2022-10-01T01:37:00;12.75;;;10.50;;
53034;SDS011;38923;53.236;6.506;2022-10-01T01:39:32;11.85;;;9.07;;
53034;SDS011;38923;53.236;6.506;2022-10-01T01:42:03;13.07;;;10.48;;
53034;SDS011;38923;53.236;6.506;2022-10-01T01:44:35;11.45;;;8.98;;
53034;SDS011;38923;53.236;6.506;2022-10-01T01:47:04;12.65;;;9.77;;
53034;SDS011;38923;53.236;6.506;2022-10-01T01:49:34;13.27;;;9.07;;
53034;SDS011;38923;53.236;6.506;2022-10-01T01:52:09;11.32;;;8.70;;
53034;SDS011;38923;53.236;6.506;2022-10-01T01:54:44;15.55;;;10.73;;
53034;SDS011;38923;53.236;6.506;2022-10-01T01:57:15;9.97;;;8.27;;
53034;SDS011;38923;53.236;6.506;2022-10-01T01:59:42;12.60;;;8.70;;
53034;SDS011;38923;53.236;6.506;2022-10-01T02:02:11;12.10;;;8.95;;
53034;SDS011;38923;53.236;6.506;2022-10-01T02:04:41;11.63;;;9.00;;
53034;SDS011;38923;53.236;6.506;2022-10-01T02:07:31;12.95;;;9.10;;
53034;SDS011;38923;53.236;6.506;2022-10-01T02:23:31;9.10;;;6.80;;
53034;SDS011;38923;53.236;6.506;2022-10-01T02:26:03;10.57;;;8.05;;
53034;SDS011;38923;53.236;6.506;2022-10-01T02:28:39;9.20;;;7.57;;
53034;SDS011;38923;53.236;6.506;2022-10-01T02:31:06;9.32;;;6.90;;
53034;SDS011;38923;53.236;6.506;2022-10-01T02:33:35;9.32;;;6.38;;
53034;SDS011;38923;53.236;6.506;2022-10-01T02:36:03;7.80;;;6.80;;
53034;SDS011;38923;53.236;6.506;2022-10-01T02:38:31;9.13;;;6.72;;
53034;SDS011;38923;53.236;6.506;2022-10-01T02:40:59;7.15;;;6.20;;
53034;SDS011;38923;53.236;6.506;2022-10-01T02:43:33;8.38;;;6.65;;
53034;SDS011;38923;53.236;6.506;2022-10-01T02:46:05;8.13;;;5.82;;
53034;SDS011;38923;53.236;6.506;2022-10-01T02:48:44;7.28;;;6.30;;
53034;SDS011;38923;53.236;6.506;2022-10-01T02:53:39;9.65;;;6.68;;
53034;SDS011;38923;53.236;6.506;2022-10-01T02:56:07;10.38;;;6.00;;
53034;SDS011;38923;53.236;6.506;2022-10-01T02:58:35;8.77;;;6.10;;
53034;SDS011;38923;53.236;6.506;2022-10-01T03:01:01;9.15;;;6.30;;
53034;SDS011;38923;53.236;6.506;2022-10-01T03:03:27;7.07;;;5.38;;
53034;SDS011;38923;53.236;6.506;2022-10-01T03:05:55;9.15;;;6.10;;
53034;SDS011;38923;53.236;6.506;2022-10-01T03:08:21;7.45;;;5.80;;
53034;SDS011;38923;53.236;6.506;2022-10-01T03:10:47;6.68;;;5.20;;
53034;SDS011;38923;53.236;6.506;2022-10-01T03:13:14;7.65;;;5.95;;
53034;SDS011;38923;53.236;6.506;2022-10-01T03:15:44;7.38;;;5.47;;
53034;SDS011;38923;53.236;6.506;2022-10-01T03:18:11;9.77;;;5.65;;
53034;SDS011;38923;53.236;6.506;2022-10-01T03:20:37;9.68;;;6.28;;
53034;SDS011;38923;53.236;6.506;2022-10-01T03:23:02;6.82;;;5.35;;
53034;SDS011;38923;53.236;6.506;2022-10-01T03:25:28;7.45;;;5.57;;
53034;SDS011;38923;53.236;6.506;2022-10-01T03:27:54;6.53;;;5.40;;
53034;SDS011;38923;53.236;6.506;2022-10-01T03:30:20;6.18;;;5.00;;
53034;SDS011;38923;53.236;6.506;2022-10-01T03:32:46;8.27;;;5.07;;
53034;SDS011;38923;53.236;6.506;2022-10-01T03:35:12;6.47;;;5.45;;
53034;SDS011;38923;53.236;6.506;2022-10-01T03:37:38;8.98;;;6.35;;
53034;SDS011;38923;53.236;6.506;2022-10-01T03:40:04;6.60;;;5.32;;
53034;SDS011;38923;53.236;6.506;2022-10-01T03:42:30;7.40;;;5.88;;
53034;SDS011;38923;53.236;6.506;2022-10-01T03:44:56;6.97;;;4.50;;
53034;SDS011;38923;53.236;6.506;2022-10-01T03:47:22;6.78;;;4.40;;
53034;SDS011;38923;53.236;6.506;2022-10-01T03:49:48;7.47;;;5.82;;
53034;SDS011;38923;53.236;6.506;2022-10-01T03:52:14;8.35;;;5.95;;
53034;SDS011;38923;53.236;6.506;2022-10-01T03:54:40;7.43;;;5.50;;
53034;SDS011;38923;53.236;6.506;2022-10-01T03:57:06;8.43;;;6.30;;
53034;SDS011;38923;53.236;6.506;2022-10-01T03:59:32;8.80;;;5.35;;
53034;SDS011;38923;53.236;6.506;2022-10-01T04:01:58;9.52;;;6.70;;
53034;SDS011;38923;53.236;6.506;2022-10-01T04:04:23;7.57;;;5.45;;
53034;SDS011;38923;53.236;6.506;2022-10-01T04:06:49;9.27;;;6.20;;
53034;SDS011;38923;53.236;6.506;2022-10-01T04:09:15;8.10;;;4.72;;
53034;SDS011;38923;53.236;6.506;2022-10-01T04:11:41;6.38;;;5.65;;
53034;SDS011;38923;53.236;6.506;2022-10-01T04:14:07;6.35;;;4.90;;
53034;SDS011;38923;53.236;6.506;2022-10-01T04:16:33;9.25;;;6.75;;
53034;SDS011;38923;53.236;6.506;2022-10-01T04:19:00;6.88;;;4.93;;
53034;SDS011;38923;53.236;6.506;2022-10-01T04:21:27;8.52;;;6.68;;
53034;SDS011;38923;53.236;6.506;2022-10-01T04:23:53;6.82;;;4.95;;
53034;SDS011;38923;53.236;6.506;2022-10-01T04:26:19;6.03;;;4.85;;
53034;SDS011;38923;53.236;6.506;2022-10-01T04:28:45;6.57;;;4.82;;
53034;SDS011;38923;53.236;6.506;2022-10-01T04:31:12;6.40;;;4.07;;
53034;SDS011;38923;53.236;6.506;2022-10-01T04:33:54;4.53;;;2.97;;
53034;SDS011;38923;53.236;6.506;2022-10-01T04:36:21;3.65;;;2.33;;
53034;SDS011;38923;53.236;6.506;2022-10-01T04:38:51;2.92;;;2.33;;
53034;SDS011;38923;53.236;6.506;2022-10-01T04:41:18;2.50;;;2.30;;
53034;SDS011;38923;53.236;6.506;2022-10-01T04:43:45;3.15;;;2.33;;
53034;SDS011;38923;53.236;6.506;2022-10-01T04:46:11;3.05;;;2.30;;
53034;SDS011;38923;53.236;6.506;2022-10-01T04:48:37;3.63;;;2.60;;
53034;SDS011;38923;53.236;6.506;2022-10-01T04:51:03;3.67;;;2.78;;
53034;SDS011;38923;53.236;6.506;2022-10-01T04:53:29;3.15;;;2.65;;
53034;SDS011;38923;53.236;6.506;2022-10-01T04:55:55;4.28;;;2.78;;
53034;SDS011;38923;53.236;6.506;2022-10-01T04:58:21;4.32;;;2.90;;
53034;SDS011;38923;53.236;6.506;2022-10-01T05:00:47;5.70;;;2.72;;
53034;SDS011;38923;53.236;6.506;2022-10-01T05:03:14;4.55;;;2.63;;
53034;SDS011;38923;53.236;6.506;2022-10-01T05:05:40;4.03;;;2.80;;
53034;SDS011;38923;53.236;6.506;2022-10-01T05:08:06;3.53;;;2.70;;
53034;SDS011;38923;53.236;6.506;2022-10-01T05:10:32;6.18;;;3.15;;
53034;SDS011;38923;53.236;6.506;2022-10-01T05:12:58;4.45;;;3.03;;
53034;SDS011;38923;53.236;6.506;2022-10-01T05:15:26;17.35;;;3.67;;
53034;SDS011;38923;53.236;6.506;2022-10-01T05:17:54;3.85;;;3.30;;
53034;SDS011;38923;53.236;6.506;2022-10-01T05:20:21;4.43;;;3.00;;
53034;SDS011;38923;53.236;6.506;2022-10-01T05:22:50;4.40;;;2.80;;
53034;SDS011;38923;53.236;6.506;2022-10-01T05:25:16;6.47;;;3.15;;
53034;SDS011;38923;53.236;6.506;2022-10-01T05:27:43;4.75;;;3.58;;
53034;SDS011;38923;53.236;6.506;2022-10-01T05:30:17;7.07;;;3.70;;
53034;SDS011;38923;53.236;6.506;2022-10-01T05:32:55;7.00;;;3.45;;
53034;SDS011;38923;53.236;6.506;2022-10-01T05:35:22;4.82;;;3.25;;
53034;SDS011;38923;53.236;6.506;2022-10-01T05:37:58;4.72;;;4.00;;
53034;SDS011;38923;53.236;6.506;2022-10-01T05:40:26;5.05;;;3.63;;
53034;SDS011;38923;53.236;6.506;2022-10-01T05:42:53;3.95;;;3.35;;
53034;SDS011;38923;53.236;6.506;2022-10-01T05:45:20;4.10;;;3.70;;
53034;SDS011;38923;53.236;6.506;2022-10-01T05:47:47;5.10;;;3.80;;
53034;SDS011;38923;53.236;6.506;2022-10-01T05:50:19;6.05;;;3.88;;
53034;SDS011;38923;53.236;6.506;2022-10-01T05:52:49;6.45;;;4.60;;
53034;SDS011;38923;53.236;6.506;2022-10-01T05:55:17;5.18;;;4.35;;
53034;SDS011;38923;53.236;6.506;2022-10-01T05:57:43;7.78;;;5.05;;
53034;SDS011;38923;53.236;6.506;2022-10-01T06:02:50;6.07;;;4.18;;
53034;SDS011;38923;53.236;6.506;2022-10-01T06:05:17;6.53;;;4.97;;
53034;SDS011;38923;53.236;6.506;2022-10-01T06:07:44;8.38;;;5.03;;
53034;SDS011;38923;53.236;6.506;2022-10-01T06:10:10;8.52;;;5.53;;
53034;SDS011;38923;53.236;6.506;2022-10-01T06:12:36;5.72;;;5.13;;
53034;SDS011;38923;53.236;6.506;2022-10-01T06:15:02;6.72;;;5.38;;
53034;SDS011;38923;53.236;6.506;2022-10-01T06:17:28;9.05;;;5.30;;
53034;SDS011;38923;53.236;6.506;2022-10-01T06:19:58;6.65;;;4.75;;
53034;SDS011;38923;53.236;6.506;2022-10-01T06:22:24;8.63;;;5.65;;
53034;SDS011;38923;53.236;6.506;2022-10-01T06:24:50;9.02;;;5.70;;
53034;SDS011;38923;53.236;6.506;2022-10-01T06:27:16;8.38;;;5.50;;
53034;SDS011;38923;53.236;6.506;2022-10-01T06:29:42;6.68;;;5.10;;
53034;SDS011;38923;53.236;6.506;2022-10-01T06:32:09;8.70;;;5.45;;
53034;SDS011;38923;53.236;6.506;2022-10-01T06:34:38;9.65;;;5.80;;
53034;SDS011;38923;53.236;6.506;2022-10-01T06:37:05;9.55;;;5.70;;
53034;SDS011;38923;53.236;6.506;2022-10-01T06:39:31;8.27;;;6.13;;
53034;SDS011;38923;53.236;6.506;2022-10-01T06:42:01;11.32;;;6.03;;
53034;SDS011;38923;53.236;6.506;2022-10-01T06:44:27;7.78;;;5.35;;
53034;SDS011;38923;53.236;6.506;2022-10-01T06:46:55;10.20;;;6.30;;
53034;SDS011;38923;53.236;6.506;2022-10-01T06:49:21;10.45;;;7.15;;
53034;SDS011;38923;53.236;6.506;2022-10-01T06:51:50;8.90;;;6.18;;
53034;SDS011;38923;53.236;6.506;2022-10-01T06:54:37;9.57;;;6.45;;
53034;SDS011;38923;53.236;6.506;2022-10-01T06:57:04;14.13;;;6.57;;
53034;SDS011;38923;53.236;6.506;2022-10-01T06:59:30;14.48;;;6.75;;
53034;SDS011;38923;53.236;6.506;2022-10-01T07:01:56;12.70;;;7.60;;
53034;SDS011;38923;53.236;6.506;2022-10-01T07:04:23;12.25;;;6.95;;
53034;SDS011;38923;53.236;6.506;2022-10-01T07:06:49;19.00;;;7.45;;
53034;SDS011;38923;53.236;6.506;2022-10-01T07:09:16;11.93;;;5.78;;
53034;SDS011;38923;53.236;6.506;2022-10-01T07:11:47;10.27;;;6.63;;
53034;SDS011;38923;53.236;6.506;2022-10-01T07:14:13;15.07;;;7.30;;
53034;SDS011;38923;53.236;6.506;2022-10-01T07:16:39;12.35;;;6.20;;
53034;SDS011;38923;53.236;6.506;2022-10-01T07:19:08;14.93;;;5.80;;
53034;SDS011;38923;53.236;6.506;2022-10-01T07:21:34;15.85;;;7.35;;
53034;SDS011;38923;53.236;6.506;2022-10-01T07:24:00;12.38;;;5.78;;
53034;SDS011;38923;53.236;6.506;2022-10-01T07:26:27;19.13;;;5.95;;
53034;SDS011;38923;53.236;6.506;2022-10-01T07:28:53;8.23;;;5.07;;
53034;SDS011;38923;53.236;6.506;2022-10-01T07:31:19;12.63;;;4.53;;
53034;SDS011;38923;53.236;6.506;2022-10-01T07:33:45;9.35;;;5.03;;
53034;SDS011;38923;53.236;6.506;2022-10-01T07:36:12;15.38;;;5.95;;
53034;SDS011;38923;53.236;6.506;2022-10-01T07:38:48;11.93;;;4.70;;
53034;SDS011;38923;53.236;6.506;2022-10-01T07:41:15;14.48;;;4.90;;
53034;SDS011;38923;53.236;6.506;2022-10-01T07:43:42;10.07;;;4.20;;
53034;SDS011;38923;53.236;6.506;2022-10-01T07:46:10;11.45;;;4.60;;
53034;SDS011;38923;53.236;6.506;2022-10-01T07:48:37;11.07;;;4.28;;
53034;SDS011;38923;53.236;6.506;2022-10-01T07:51:03;12.32;;;5.18;;
53034;SDS011;38923;53.236;6.506;2022-10-01T07:53:32;12.32;;;4.07;;
53034;SDS011;38923;53.236;6.506;2022-10-01T07:56:02;14.05;;;4.00;;
53034;SDS011;38923;53.236;6.506;2022-10-01T07:58:28;15.65;;;3.97;;
53034;SDS011;38923;53.236;6.506;2022-10-01T08:00:57;13.80;;;4.20;;
53034;SDS011;38923;53.236;6.506;2022-10-01T08:03:27;13.38;;;3.65;;
53034;SDS011;38923;53.236;6.506;2022-10-01T08:05:54;12.02;;;3.65;;
53034;SDS011;38923;53.236;6.506;2022-10-01T08:08:28;11.63;;;3.25;;
53034;SDS011;38923;53.236;6.506;2022-10-01T08:10:55;14.15;;;3.17;;
53034;SDS011;38923;53.236;6.506;2022-10-01T08:13:21;11.88;;;3.10;;
53034;SDS011;38923;53.236;6.506;2022-10-01T08:15:50;14.30;;;2.83;;
53034;SDS011;38923;53.236;6.506;2022-10-01T08:18:22;13.43;;;2.80;;
53034;SDS011;38923;53.236;6.506;2022-10-01T08:20:48;7.95;;;1.88;;
53034;SDS011;38923;53.236;6.506;2022-10-01T08:23:15;12.43;;;2.55;;
53034;SDS011;38923;53.236;6.506;2022-10-01T08:25:41;16.75;;;2.70;;
53034;SDS011;38923;53.236;6.506;2022-10-01T08:31:05;10.90;;;2.60;;
53034;SDS011;38923;53.236;6.506;2022-10-01T08:33:37;13.55;;;2.67;;
53034;SDS011;38923;53.236;6.506;2022-10-01T08:36:03;17.05;;;2.67;;
53034;SDS011;38923;53.236;6.506;2022-10-01T08:38:34;10.48;;;1.83;;
53034;SDS011;38923;53.236;6.506;2022-10-01T08:41:02;16.02;;;2.10;;
53034;SDS011;38923;53.236;6.506;2022-10-01T08:43:39;11.98;;;2.53;;
53034;SDS011;38923;53.236;6.506;2022-10-01T08:46:10;12.85;;;2.55;;
53034;SDS011;38923;53.236;6.506;2022-10-01T08:48:42;14.10;;;2.03;;
53034;SDS011;38923;53.236;6.506;2022-10-01T08:51:22;11.13;;;2.13;;
53034;SDS011;38923;53.236;6.506;2022-10-01T08:54:02;12.50;;;2.08;;
53034;SDS011;38923;53.236;6.506;2022-10-01T08:56:43;10.73;;;2.08;;
53034;SDS011;38923;53.236;6.506;2022-10-01T08:59:47;12.65;;;2.45;;
53034;SDS011;38923;53.236;6.506;2022-10-01T09:02:17;11.40;;;2.35;;
53034;SDS011;38923;53.236;6.506;2022-10-01T09:04:47;20.45;;;3.13;;
53034;SDS011;38923;53.236;6.506;2022-10-01T09:10:33;13.88;;;2.33;;
53034;SDS011;38923;53.236;6.506;2022-10-01T09:15:40;18.45;;;3.22;;
53034;SDS011;38923;53.236;6.506;2022-10-01T09:18:37;12.82;;;1.80;;
53034;SDS011;38923;53.236;6.506;2022-10-01T09:21:16;9.52;;;2.13;;
53034;SDS011;38923;53.236;6.506;2022-10-01T09:23:54;12.77;;;1.88;;
53034;SDS011;38923;53.236;6.506;2022-10-01T09:26:27;9.63;;;1.98;;
53034;SDS011;38923;53.236;6.506;2022-10-01T09:28:57;14.85;;;2.20;;
53034;SDS011;38923;53.236;6.506;2022-10-01T09:31:26;11.07;;;1.60;;
53034;SDS011;38923;53.236;6.506;2022-10-01T09:34:08;11.55;;;1.45;;
53034;SDS011;38923;53.236;6.506;2022-10-01T09:36:55;18.42;;;1.80;;
53034;SDS011;38923;53.236;6.506;2022-10-01T09:42:10;15.65;;;2.17;;
53034;SDS011;38923;53.236;6.506;2022-10-01T09:44:37;9.38;;;1.83;;
53034;SDS011;38923;53.236;6.506;2022-10-01T09:47:19;12.07;;;2.10;;
53034;SDS011;38923;53.236;6.506;2022-10-01T09:49:50;8.30;;;1.40;;
53034;SDS011;38923;53.236;6.506;2022-10-01T09:55:16;11.25;;;1.38;;
53034;SDS011;38923;53.236;6.506;2022-10-01T09:57:52;8.77;;;1.10;;
53034;SDS011;38923;53.236;6.506;2022-10-01T10:00:29;4.97;;;1.23;;
53034;SDS011;38923;53.236;6.506;2022-10-01T10:03:00;7.97;;;1.42;;
53034;SDS011;38923;53.236;6.506;2022-10-01T10:05:29;7.60;;;1.20;;
53034;SDS011;38923;53.236;6.506;2022-10-01T10:10:52;6.55;;;1.17;;
53034;SDS011;38923;53.236;6.506;2022-10-01T10:13:35;6.40;;;1.10;;
53034;SDS011;38923;53.236;6.506;2022-10-01T10:16:07;7.50;;;1.52;;
53034;SDS011;38923;53.236;6.506;2022-10-01T10:18:40;10.43;;;1.80;;
53034;SDS011;38923;53.236;6.506;2022-10-01T10:21:12;11.35;;;1.67;;
53034;SDS011;38923;53.236;6.506;2022-10-01T10:23:49;8.85;;;1.58;;
53034;SDS011;38923;53.236;6.506;2022-10-01T10:26:27;7.50;;;1.33;;
53034;SDS011;38923;53.236;6.506;2022-10-01T10:29:03;9.27;;;1.13;;
53034;SDS011;38923;53.236;6.506;2022-10-01T10:31:41;6.35;;;1.50;;
53034;SDS011;38923;53.236;6.506;2022-10-01T10:36:43;7.18;;;1.08;;
53034;SDS011;38923;53.236;6.506;2022-10-01T10:41:50;5.70;;;0.90;;
53034;SDS011;38923;53.236;6.506;2022-10-01T10:44:18;4.63;;;0.70;;
53034;SDS011;38923;53.236;6.506;2022-10-01T10:46:49;3.67;;;0.73;;
53034;SDS011;38923;53.236;6.506;2022-10-01T10:51:50;6.00;;;0.93;;
53034;SDS011;38923;53.236;6.506;2022-10-01T10:54:19;4.72;;;0.95;;
53034;SDS011;38923;53.236;6.506;2022-10-01T10:56:53;6.22;;;1.13;;
53034;SDS011;38923;53.236;6.506;2022-10-01T10:59:25;9.13;;;1.30;;
53034;SDS011;38923;53.236;6.506;2022-10-01T11:01:51;10.15;;;2.25;;
53034;SDS011;38923;53.236;6.506;2022-10-01T11:04:40;6.55;;;1.25;;
53034;SDS011;38923;53.236;6.506;2022-10-01T11:07:09;5.93;;;1.23;;
53034;SDS011;38923;53.236;6.506;2022-10-01T11:12:32;7.22;;;1.23;;
53034;SDS011;38923;53.236;6.506;2022-10-01T11:24:02;5.15;;;0.80;;
53034;SDS011;38923;53.236;6.506;2022-10-01T11:26:36;7.30;;;1.50;;
53034;SDS011;38923;53.236;6.506;2022-10-01T11:29:16;7.82;;;1.27;;
53034;SDS011;38923;53.236;6.506;2022-10-01T11:31:51;6.53;;;1.60;;
53034;SDS011;38923;53.236;6.506;2022-10-01T11:37:36;7.68;;;1.48;;
53034;SDS011;38923;53.236;6.506;2022-10-01T11:40:12;10.70;;;1.45;;
53034;SDS011;38923;53.236;6.506;2022-10-01T11:42:43;8.60;;;1.35;;
53034;SDS011;38923;53.236;6.506;2022-10-01T11:45:20;8.88;;;1.90;;
53034;SDS011;38923;53.236;6.506;2022-10-01T11:47:54;8.73;;;1.90;;
53034;SDS011;38923;53.236;6.506;2022-10-01T11:50:33;11.23;;;2.13;;
53034;SDS011;38923;53.236;6.506;2022-10-01T11:53:03;12.75;;;1.75;;
53034;SDS011;38923;53.236;6.506;2022-10-01T11:55:41;14.35;;;1.80;;
53034;SDS011;38923;53.236;6.506;2022-10-01T11:58:35;9.45;;;1.60;;
53034;SDS011;38923;53.236;6.506;2022-10-01T12:06:19;13.90;;;2.33;;
53034;SDS011;38923;53.236;6.506;2022-10-01T12:08:49;11.93;;;1.95;;
53034;SDS011;38923;53.236;6.506;2022-10-01T12:11:27;14.57;;;2.33;;
53034;SDS011;38923;53.236;6.506;2022-10-01T12:14:04;14.48;;;2.00;;
53034;SDS011;38923;53.236;6.506;2022-10-01T12:16:57;16.05;;;2.45;;
53034;SDS011;38923;53.236;6.506;2022-10-01T12:19:32;16.38;;;1.92;;
53034;SDS011;38923;53.236;6.506;2022-10-01T12:22:11;12.07;;;1.38;;
53034;SDS011;38923;53.236;6.506;2022-10-01T12:24:42;14.57;;;2.50;;
53034;SDS011;38923;53.236;6.506;2022-10-01T12:41:25;12.90;;;1.30;;
53034;SDS011;38923;53.236;6.506;2022-10-01T12:49:35;6.95;;;1.42;;
53034;SDS011;38923;53.236;6.506;2022-10-01T12:52:16;12.07;;;1.42;;
53034;SDS011;38923;53.236;6.506;2022-10-01T12:55:16;10.00;;;2.05;;
53034;SDS011;38923;53.236;6.506;2022-10-01T12:57:51;7.28;;;0.90;;
53034;SDS011;38923;53.236;6.506;2022-10-01T13:00:19;4.40;;;1.10;;
53034;SDS011;38923;53.236;6.506;2022-10-01T13:09:08;7.40;;;1.15;;
53034;SDS011;38923;53.236;6.506;2022-10-01T13:14:19;5.95;;;0.98;;
53034;SDS011;38923;53.236;6.506;2022-10-01T13:19:19;7.88;;;0.90;;
53034;SDS011;38923;53.236;6.506;2022-10-01T13:21:55;6.38;;;1.02;;
53034;SDS011;38923;53.236;6.506;2022-10-01T13:28:08;8.73;;;1.20;;
53034;SDS011;38923;53.236;6.506;2022-10-01T13:33:26;7.45;;;1.10;;
53034;SDS011;38923;53.236;6.506;2022-10-01T13:35:55;4.57;;;0.90;;
53034;SDS011;38923;53.236;6.506;2022-10-01T13:38:26;5.70;;;1.17;;
53034;SDS011;38923;53.236;6.506;2022-10-01T13:41:03;4.47;;;1.00;;
53034;SDS011;38923;53.236;6.506;2022-10-01T13:43:58;3.05;;;0.75;;
53034;SDS011;38923;53.236;6.506;2022-10-01T13:46:46;6.72;;;1.08;;
53034;SDS011;38923;53.236;6.506;2022-10-01T13:49:20;7.53;;;0.90;;
53034;SDS011;38923;53.236;6.506;2022-10-01T13:51:54;4.50;;;1.00;;
53034;SDS011;38923;53.236;6.506;2022-10-01T13:54:29;5.60;;;0.90;;
53034;SDS011;38923;53.236;6.506;2022-10-01T14:02:58;3.50;;;0.75;;
53034;SDS011;38923;53.236;6.506;2022-10-01T14:05:52;8.35;;;1.20;;
53034;SDS011;38923;53.236;6.506;2022-10-01T14:08:25;6.10;;;1.05;;
53034;SDS011;38923;53.236;6.506;2022-10-01T14:11:07;9.27;;;1.10;;
53034;SDS011;38923;53.236;6.506;2022-10-01T14:13:55;4.65;;;0.80;;
53034;SDS011;38923;53.236;6.506;2022-10-01T14:16:46;7.38;;;1.23;;
53034;SDS011;38923;53.236;6.506;2022-10-01T14:19:19;9.52;;;1.00;;
53034;SDS011;38923;53.236;6.506;2022-10-01T14:29:51;6.95;;;1.35;;
53034;SDS011;38923;53.236;6.506;2022-10-01T14:35:11;15.00;;;1.58;;
53034;SDS011;38923;53.236;6.506;2022-10-01T14:38:18;6.70;;;1.40;;
53034;SDS011;38923;53.236;6.506;2022-10-01T14:40:46;5.93;;;1.20;;
53034;SDS011;38923;53.236;6.506;2022-10-01T14:45:57;8.70;;;1.75;;
53034;SDS011;38923;53.236;6.506;2022-10-01T14:48:27;8.18;;;1.40;;
53034;SDS011;38923;53.236;6.506;2022-10-01T14:51:01;17.35;;;1.98;;
53034;SDS011;38923;53.236;6.506;2022-10-01T14:53:29;9.25;;;1.50;;
53034;SDS011;38923;53.236;6.506;2022-10-01T14:56:05;8.57;;;1.92;;
53034;SDS011;38923;53.236;6.506;2022-10-01T14:58:47;13.02;;;1.75;;
53034;SDS011;38923;53.236;6.506;2022-10-01T15:01:22;11.30;;;1.60;;
53034;SDS011;38923;53.236;6.506;2022-10-01T15:03:50;14.63;;;2.15;;
53034;SDS011;38923;53.236;6.506;2022-10-01T15:06:18;10.65;;;1.77;;
53034;SDS011;38923;53.236;6.506;2022-10-01T15:08:50;8.88;;;1.60;;
53034;SDS011;38923;53.236;6.506;2022-10-01T15:11:28;13.07;;;2.72;;
53034;SDS011;38923;53.236;6.506;2022-10-01T15:14:02;14.50;;;2.45;;
53034;SDS011;38923;53.236;6.506;2022-10-01T15:16:38;14.00;;;2.35;;
53034;SDS011;38923;53.236;6.506;2022-10-01T15:19:08;13.20;;;1.95;;
53034;SDS011;38923;53.236;6.506;2022-10-01T15:21:40;14.05;;;2.60;;
53034;SDS011;38923;53.236;6.506;2022-10-01T15:24:25;17.58;;;2.75;;
53034;SDS011;38923;53.236;6.506;2022-10-01T15:26:55;14.10;;;2.88;;
53034;SDS011;38923;53.236;6.506;2022-10-01T15:29:23;12.18;;;2.38;;
53034;SDS011;38923;53.236;6.506;2022-10-01T15:31:49;18.52;;;2.72;;
53034;SDS011;38923;53.236;6.506;2022-10-01T15:34:18;13.98;;;2.90;;
53034;SDS011;38923;53.236;6.506;2022-10-01T15:36:49;15.82;;;2.85;;
53034;SDS011;38923;53.236;6.506;2022-10-01T15:41:59;15.45;;;3.30;;
53034;SDS011;38923;53.236;6.506;2022-10-01T15:44:46;11.15;;;2.67;;
53034;SDS011;38923;53.236;6.506;2022-10-01T15:49:59;16.63;;;3.38;;
53034;SDS011;38923;53.236;6.506;2022-10-01T15:55:20;11.55;;;2.17;;
53034;SDS011;38923;53.236;6.506;2022-10-01T15:58:34;16.13;;;3.03;;
53034;SDS011;38923;53.236;6.506;2022-10-01T16:03:31;15.40;;;2.60;;
53034;SDS011;38923;53.236;6.506;2022-10-01T16:05:59;15.63;;;2.70;;
53034;SDS011;38923;53.236;6.506;2022-10-01T16:08:28;16.00;;;2.85;;
53034;SDS011;38923;53.236;6.506;2022-10-01T16:13:38;22.88;;;3.15;;
53034;SDS011;38923;53.236;6.506;2022-10-01T16:18:39;14.93;;;2.47;;
53034;SDS011;38923;53.236;6.506;2022-10-01T16:21:16;19.42;;;2.80;;
53034;SDS011;38923;53.236;6.506;2022-10-01T16:23:44;12.27;;;2.17;;
53034;SDS011;38923;53.236;6.506;2022-10-01T16:26:33;20.08;;;2.85;;
53034;SDS011;38923;53.236;6.506;2022-10-01T16:29:03;15.57;;;2.38;;
53034;SDS011;38923;53.236;6.506;2022-10-01T16:31:30;20.20;;;2.22;;
53034;SDS011;38923;53.236;6.506;2022-10-01T16:33:59;18.90;;;2.50;;
53034;SDS011;38923;53.236;6.506;2022-10-01T16:36:24;27.75;;;3.55;;
53034;SDS011;38923;53.236;6.506;2022-10-01T16:38:51;20.95;;;2.60;;
53034;SDS011;38923;53.236;6.506;2022-10-01T16:41:23;16.65;;;2.40;;
53034;SDS011;38923;53.236;6.506;2022-10-01T16:43:51;13.80;;;2.15;;
53034;SDS011;38923;53.236;6.506;2022-10-01T16:46:20;14.98;;;2.38;;
53034;SDS011;38923;53.236;6.506;2022-10-01T16:48:46;13.88;;;2.33;;
53034;SDS011;38923;53.236;6.506;2022-10-01T16:51:15;18.67;;;2.60;;
53034;SDS011;38923;53.236;6.506;2022-10-01T16:53:42;14.75;;;2.95;;
53034;SDS011;38923;53.236;6.506;2022-10-01T16:56:08;24.85;;;2.78;;
53034;SDS011;38923;53.236;6.506;2022-10-01T16:58:38;14.32;;;2.42;;
53034;SDS011;38923;53.236;6.506;2022-10-01T17:01:08;18.77;;;2.03;;
53034;SDS011;38923;53.236;6.506;2022-10-01T17:03:37;22.88;;;2.47;;
53034;SDS011;38923;53.236;6.506;2022-10-01T17:06:03;17.73;;;2.67;;
53034;SDS011;38923;53.236;6.506;2022-10-01T17:08:29;18.10;;;2.55;;
53034;SDS011;38923;53.236;6.506;2022-10-01T17:10:56;16.75;;;2.10;;
53034;SDS011;38923;53.236;6.506;2022-10-01T17:13:25;15.95;;;2.72;;
53034;SDS011;38923;53.236;6.506;2022-10-01T17:15:52;15.52;;;2.33;;
53034;SDS011;38923;53.236;6.506;2022-10-01T17:18:18;17.00;;;2.72;;
53034;SDS011;38923;53.236;6.506;2022-10-01T17:20:45;19.60;;;2.15;;
53034;SDS011;38923;53.236;6.506;2022-10-01T17:23:12;20.42;;;3.08;;